• Join FlightAware (Why Join?)
  • Login
  • US Flag 
08:13PM EDT


 

Airport Tracker/Info


-or-


 

Live Flight TrackerFlight Track Log ✈ GGN7280 ✈ 10-Jun-2013 ✈ CYYZ - KALB

Flight Track Log - Related Links

Times and Time Zones

All times are in EDT time to prevent confusion due to time zone crossing. See the GGN7280 flight status page for this flight to view local times or setup timezone preferences in your user account.

Time Position Orientation Groundspeed Altitude Reporting Facility
EDT Latitude Longitude Course Direction KTS MPH feet Rate Location/Type
09:46AM 43.6667 -79.5000 180° South 190 219 2,900  Level Toronto Center
09:47AM 43.6500 -79.4333 109° East 200 230 4,000 840 Climbing Toronto Center
09:48AM 43.6167 -79.3500 119° Southeast 210 242 4,600 900 Climbing Toronto Center
09:49AM 43.5833 -79.2833 125° Southeast 200 230 5,800 1,260 Climbing Toronto Center
09:50AM 43.5500 -79.2500 144° Southeast 190 219 7,200 1,380 Climbing Toronto Center
09:51AM 43.3966 -78.9333 180° South  Level FlightAware Approximate
09:51AM 43.5167 -79.1667 119° Southeast 200 230 8,600  Level Toronto Center
09:52AM 43.5000 -79.1000 109° East 200 230 10,000 1,320 Climbing Toronto Center
09:53AM 43.4833 -79.0167 105° East 210 242 11,300 1,200 Climbing Toronto Center
09:54AM 43.4833 -78.9500 90° East 220 253 12,500 1,200 Climbing Toronto Center
09:55AM 43.4667 -78.8500 103° East 230 265 13,800 1,020 Climbing Toronto Center
09:56AM 43.4667 -78.7667 90° East 240 276 14,600 960 Climbing Toronto Center
09:57AM 43.4500 -78.6667 103° East 250 288 15,800 1,140 Climbing Toronto Center
09:58AM 43.4333 -78.5833 105° East 240 276 16,900 840 Climbing Toronto Center
09:58AM 43.4408 -78.5675 57° Northeast 238 274 16,900  Level Cleveland Center
09:59AM 43.4308 -78.4678 98° East 243 280 16,900  Level Cleveland Center
10:00AM 43.4164 -78.3711 102° East 249 287 16,900  Level Cleveland Center
10:01AM 43.4022 -78.2744 101° East 255 293 16,900  Level Cleveland Center
10:02AM 43.3919 -78.1778 98° East 255 293 16,900  Level Cleveland Center
10:03AM 43.3814 -78.0839 99° East 255 293 17,000  Climbing Cleveland Center
10:04AM 43.3689 -77.9903 100° East 255 293 17,000  Level Cleveland Center
10:05AM 43.3544 -77.8967 102° East 255 293 17,000  Level Cleveland Center
10:06AM 43.3436 -77.7972 98° East 255 293 17,000  Level Cleveland Center
10:07AM 43.3289 -77.7036 102° East 255 293 17,000  Level Cleveland Center
10:08AM 43.3161 -77.6072 100° East 255 293 17,000  Level Cleveland Center
10:09AM 43.3050 -77.5078 99° East 255 293 17,000  Level Cleveland Center
10:10AM 43.2925 -77.4228 101° East 255 293 17,000  Level Cleveland Center
10:11AM 43.2792 -77.3236 100° East 255 293 17,000  Level Cleveland Center
10:12AM 43.2661 -77.2275 101° East 255 293 17,000  Level Cleveland Center
10:13AM 43.2528 -77.1283 100° East 255 293 17,000  Level Cleveland Center
10:14AM 43.2392 -77.0236 100° East 255 293 17,000  Level Cleveland Center
10:15AM 43.2236 -76.9278 103° East 255 293 17,000  Level Cleveland Center
10:16AM 43.2122 -76.8314 99° East 255 293 17,000  Level Cleveland Center
10:17AM 43.1989 -76.7439 102° East 255 293 17,000  Level Cleveland Center
10:18AM 43.1872 -76.6392 99° East 255 293 17,000  Level Cleveland Center
10:19AM 43.1733 -76.5433 101° East 255 293 17,000  Level Cleveland Center
10:21AM 43.1333 -76.3500 106° East 260 299 17,000  Level Toronto Center
10:21AM 43.1425 -76.3361 48° Northeast 259 298 17,000  Level Boston Center
10:22AM 43.1292 -76.2386 101° East 259 298 17,000  Level Boston Center
10:23AM 43.1136 -76.1436 103° East 259 298 17,000 -60 Level Boston Center
10:24AM 43.1000 -76.0433 100° East 259 298 16,900 -120 Descending Boston Center
10:25AM 43.0842 -75.9456 102° East 259 298 16,800  Descending Boston Center
10:26AM 43.0706 -75.8453 100° East 259 298 16,900  Climbing Boston Center
10:27AM 43.0569 -75.7450 100° East 259 298 16,900  Level Boston Center
10:28AM 43.0408 -75.6475 103° East 259 298 16,900  Level Boston Center
10:29AM 43.0269 -75.5475 101° East 259 298 16,900  Level Boston Center
10:30AM 43.0111 -75.4472 102° East 259 298 16,900  Level Boston Center
10:31AM 42.9947 -75.3472 103° East 259 298 16,900  Level Boston Center
10:32AM 42.9828 -75.2472 99° East 259 298 16,900  Level Boston Center
10:33AM 42.9642 -75.1497 105° East 259 298 16,900 -240 Level Boston Center
10:34AM 42.9461 -75.0297 102° East 259 298 16,400 -1,020 Descending Boston Center
10:35AM 42.9297 -74.9214 102° East 271 312 14,900 -1,440 Descending Boston Center
10:36AM 42.9147 -74.8469 105° East 303 349 14,000 -1,560 Descending Boston Center
10:36AM 42.9056 -74.7872 102° East 299 344 13,100 -1,080 Descending Boston Center
10:37AM 42.8967 -74.7189 100° East 294 338 12,600 -1,080 Descending Boston Center
10:38AM 42.8781 -74.5933 101° East 294 338 11,200 -960 Descending Boston Center
10:39AM 42.8653 -74.4994 100° East 282 325 10,700 -1,080 Descending Boston Center
10:40AM 42.8756 -74.3836 83° East 272 313 9,100 -1,200 Descending Boston Center
10:41AM 42.8875 -74.2906 80° East 277 319 8,100 -1,140 Descending Boston Center
10:42AM 42.9019 -74.1747 80° East 257 296 6,700 -1,560 Descending Boston Center
10:43AM 42.9119 -74.0700 83° East 240 276 4,900 -1,560 Descending Boston Center
10:44AM 42.9211 -73.9967 80° East 240 276 3,600 -1,140 Descending Boston Center
10:45AM 42.9308 -73.8947 83° East 219 252 2,700 -660 Descending Boston Center
10:46AM 42.9172 -73.8292 106° East 212 244 2,300 -420 Descending Boston Center
10:47AM 42.8653 -73.8139 168° South 164 189 1,900 -240 Descending Boston Center
10:48AM 42.8386 -73.7653 127° Southeast 158 182 1,900 -540 Level Boston Center
10:49AM 42.7881 -73.8094 213° Southwest 132 152 900 -900 Descending Boston Center
10:52AM 42.7491 -73.8020 North  Level Estimated
10:59AM 42.7491 -73.8020 North  Level Estimated
11:00AM 42.7491 -73.8020 North  Level Estimated
11:01AM 42.7491 -73.8020 North  Level Estimated